Glenview NAS, Illinois
Current Conditions -  °F | °C
As of 5:52 AM on Monday 20 Oct 2014 (Local Time) from KPWK Reporting Station
Few Clouds Few Clouds  
Wind Chill: 50°   Ceiling: Unl
Heat Index: 50°   Visibility: 10mi
Dew Point: 44°   Wind: 6mph
Humidity: 80%   Direction: 210°SSW
Pressure: 29.8"   Gusts: NA
Location:  42.09°N, 87.83°W
Report Text: KPWK 201052Z 21005KT 10SM FEW070 10/07 A2980 RMK AO2 LTG DSNT E RAB18E32 TSB20E35 SLP094 P0001 T01000067
Loading
Personal Weather Stations






























Interactive Weather Map
Tropical Storm Tracking
New forecast layout! Learn more

10-Day Weather Forecast

Advertisements
Track Severe Weather on mobile